sensor_id;sensor_type;location;lat;lon;timestamp;P1;durP1;ratioP1;P2;durP2;ratioP2
76125;SDS011;65174;48.138;21.002;2023-11-18T00:02:13;2.25;;;1.25;;
76125;SDS011;65174;48.138;21.002;2023-11-18T00:05:15;1.30;;;0.80;;
76125;SDS011;65174;48.138;21.002;2023-11-18T00:08:17;1.33;;;1.10;;
76125;SDS011;65174;48.138;21.002;2023-11-18T00:11:19;1.25;;;0.90;;
76125;SDS011;65174;48.138;21.002;2023-11-18T00:14:21;0.70;;;0.70;;
76125;SDS011;65174;48.138;21.002;2023-11-18T00:17:23;2.13;;;1.30;;
76125;SDS011;65174;48.138;21.002;2023-11-18T00:20:24;1.30;;;1.10;;
76125;SDS011;65174;48.138;21.002;2023-11-18T00:23:26;1.88;;;0.88;;
76125;SDS011;65174;48.138;21.002;2023-11-18T00:26:30;0.77;;;0.70;;
76125;SDS011;65174;48.138;21.002;2023-11-18T00:29:33;1.83;;;1.03;;
76125;SDS011;65174;48.138;21.002;2023-11-18T00:32:35;1.75;;;0.90;;
76125;SDS011;65174;48.138;21.002;2023-11-18T00:35:38;2.53;;;1.60;;
76125;SDS011;65174;48.138;21.002;2023-11-18T00:38:41;1.55;;;0.70;;
76125;SDS011;65174;48.138;21.002;2023-11-18T00:41:42;1.08;;;0.90;;
76125;SDS011;65174;48.138;21.002;2023-11-18T00:44:44;2.43;;;1.07;;
76125;SDS011;65174;48.138;21.002;2023-11-18T00:47:46;1.23;;;0.77;;
76125;SDS011;65174;48.138;21.002;2023-11-18T00:50:48;1.25;;;1.02;;
76125;SDS011;65174;48.138;21.002;2023-11-18T00:53:50;1.27;;;0.80;;
76125;SDS011;65174;48.138;21.002;2023-11-18T00:56:52;1.00;;;0.90;;
76125;SDS011;65174;48.138;21.002;2023-11-18T00:59:54;1.80;;;1.30;;
76125;SDS011;65174;48.138;21.002;2023-11-18T01:02:56;1.15;;;0.88;;
76125;SDS011;65174;48.138;21.002;2023-11-18T01:05:58;1.33;;;0.88;;
76125;SDS011;65174;48.138;21.002;2023-11-18T01:09:00;2.25;;;1.17;;
76125;SDS011;65174;48.138;21.002;2023-11-18T01:12:02;1.50;;;1.23;;
76125;SDS011;65174;48.138;21.002;2023-11-18T01:15:09;2.10;;;1.20;;
76125;SDS011;65174;48.138;21.002;2023-11-18T01:18:12;9.63;;;0.93;;
76125;SDS011;65174;48.138;21.002;2023-11-18T01:21:14;2.13;;;1.15;;
76125;SDS011;65174;48.138;21.002;2023-11-18T01:24:19;1.40;;;1.00;;
76125;SDS011;65174;48.138;21.002;2023-11-18T01:27:20;1.90;;;1.30;;
76125;SDS011;65174;48.138;21.002;2023-11-18T01:30:24;2.67;;;0.97;;
76125;SDS011;65174;48.138;21.002;2023-11-18T01:33:28;1.75;;;1.15;;
76125;SDS011;65174;48.138;21.002;2023-11-18T01:36:30;1.15;;;0.75;;
76125;SDS011;65174;48.138;21.002;2023-11-18T01:39:35;1.15;;;0.93;;
76125;SDS011;65174;48.138;21.002;2023-11-18T01:42:37;0.93;;;0.80;;
76125;SDS011;65174;48.138;21.002;2023-11-18T01:45:40;1.50;;;1.30;;
76125;SDS011;65174;48.138;21.002;2023-11-18T01:48:42;1.00;;;0.90;;
76125;SDS011;65174;48.138;21.002;2023-11-18T01:51:45;2.47;;;0.95;;
76125;SDS011;65174;48.138;21.002;2023-11-18T01:54:47;5.50;;;1.50;;
76125;SDS011;65174;48.138;21.002;2023-11-18T01:57:50;1.90;;;1.50;;
76125;SDS011;65174;48.138;21.002;2023-11-18T02:00:52;1.53;;;0.83;;
76125;SDS011;65174;48.138;21.002;2023-11-18T02:03:54;2.17;;;1.23;;
76125;SDS011;65174;48.138;21.002;2023-11-18T02:06:56;1.25;;;1.08;;
76125;SDS011;65174;48.138;21.002;2023-11-18T02:09:58;1.70;;;1.48;;
76125;SDS011;65174;48.138;21.002;2023-11-18T02:13:09;2.17;;;1.27;;
76125;SDS011;65174;48.138;21.002;2023-11-18T02:16:13;0.43;;;0.40;;
76125;SDS011;65174;48.138;21.002;2023-11-18T02:19:19;2.15;;;1.45;;
76125;SDS011;65174;48.138;21.002;2023-11-18T02:22:21;2.10;;;1.85;;
76125;SDS011;65174;48.138;21.002;2023-11-18T02:25:24;1.63;;;1.30;;
76125;SDS011;65174;48.138;21.002;2023-11-18T02:28:28;2.40;;;1.52;;
76125;SDS011;65174;48.138;21.002;2023-11-18T02:31:33;1.37;;;1.00;;
76125;SDS011;65174;48.138;21.002;2023-11-18T02:34:35;2.58;;;1.50;;
76125;SDS011;65174;48.138;21.002;2023-11-18T02:37:40;2.10;;;1.35;;
76125;SDS011;65174;48.138;21.002;2023-11-18T02:40:44;2.67;;;1.60;;
76125;SDS011;65174;48.138;21.002;2023-11-18T02:43:47;1.95;;;1.55;;
76125;SDS011;65174;48.138;21.002;2023-11-18T02:46:49;1.20;;;0.90;;
76125;SDS011;65174;48.138;21.002;2023-11-18T02:49:54;1.15;;;1.00;;
76125;SDS011;65174;48.138;21.002;2023-11-18T02:52:57;1.80;;;1.10;;
76125;SDS011;65174;48.138;21.002;2023-11-18T02:56:00;2.25;;;1.20;;
76125;SDS011;65174;48.138;21.002;2023-11-18T02:59:04;1.95;;;1.13;;
76125;SDS011;65174;48.138;21.002;2023-11-18T03:02:10;2.77;;;1.43;;
76125;SDS011;65174;48.138;21.002;2023-11-18T03:05:13;1.67;;;1.40;;
76125;SDS011;65174;48.138;21.002;2023-11-18T03:08:16;3.05;;;1.80;;
76125;SDS011;65174;48.138;21.002;2023-11-18T03:11:20;2.22;;;1.30;;
76125;SDS011;65174;48.138;21.002;2023-11-18T03:14:23;1.13;;;1.02;;
76125;SDS011;65174;48.138;21.002;2023-11-18T03:17:25;1.53;;;1.00;;
76125;SDS011;65174;48.138;21.002;2023-11-18T03:20:27;1.15;;;1.02;;
76125;SDS011;65174;48.138;21.002;2023-11-18T03:23:29;2.55;;;1.25;;
76125;SDS011;65174;48.138;21.002;2023-11-18T03:26:31;1.63;;;1.08;;
76125;SDS011;65174;48.138;21.002;2023-11-18T03:29:34;2.85;;;1.20;;
76125;SDS011;65174;48.138;21.002;2023-11-18T03:32:36;2.53;;;1.53;;
76125;SDS011;65174;48.138;21.002;2023-11-18T03:35:38;2.97;;;1.40;;
76125;SDS011;65174;48.138;21.002;2023-11-18T03:38:40;2.13;;;1.08;;
76125;SDS011;65174;48.138;21.002;2023-11-18T03:41:42;1.67;;;1.33;;
76125;SDS011;65174;48.138;21.002;2023-11-18T03:44:45;2.33;;;1.52;;
76125;SDS011;65174;48.138;21.002;2023-11-18T03:47:49;2.00;;;0.90;;
76125;SDS011;65174;48.138;21.002;2023-11-18T03:50:51;1.70;;;1.10;;
76125;SDS011;65174;48.138;21.002;2023-11-18T03:53:55;1.17;;;1.02;;
76125;SDS011;65174;48.138;21.002;2023-11-18T03:56:57;1.17;;;0.88;;
76125;SDS011;65174;48.138;21.002;2023-11-18T03:59:59;2.95;;;1.52;;
76125;SDS011;65174;48.138;21.002;2023-11-18T04:03:01;2.10;;;1.63;;
76125;SDS011;65174;48.138;21.002;2023-11-18T04:06:03;0.98;;;0.88;;
76125;SDS011;65174;48.138;21.002;2023-11-18T04:09:05;1.55;;;1.27;;
76125;SDS011;65174;48.138;21.002;2023-11-18T04:12:07;6.00;;;1.35;;
76125;SDS011;65174;48.138;21.002;2023-11-18T04:15:09;1.98;;;1.42;;
76125;SDS011;65174;48.138;21.002;2023-11-18T04:18:12;1.20;;;0.90;;
76125;SDS011;65174;48.138;21.002;2023-11-18T04:21:14;2.22;;;1.33;;
76125;SDS011;65174;48.138;21.002;2023-11-18T04:24:17;2.80;;;1.70;;
76125;SDS011;65174;48.138;21.002;2023-11-18T04:27:18;3.78;;;1.30;;
76125;SDS011;65174;48.138;21.002;2023-11-18T04:30:20;1.85;;;1.00;;
76125;SDS011;65174;48.138;21.002;2023-11-18T04:33:22;2.00;;;1.33;;
76125;SDS011;65174;48.138;21.002;2023-11-18T04:36:26;1.85;;;1.30;;
76125;SDS011;65174;48.138;21.002;2023-11-18T04:39:28;1.83;;;1.40;;
76125;SDS011;65174;48.138;21.002;2023-11-18T04:42:32;2.85;;;1.73;;
76125;SDS011;65174;48.138;21.002;2023-11-18T04:45:34;2.10;;;1.58;;
76125;SDS011;65174;48.138;21.002;2023-11-18T04:48:36;2.57;;;1.37;;
76125;SDS011;65174;48.138;21.002;2023-11-18T04:51:42;2.83;;;1.70;;
76125;SDS011;65174;48.138;21.002;2023-11-18T04:54:44;3.40;;;1.60;;
76125;SDS011;65174;48.138;21.002;2023-11-18T04:57:49;2.35;;;1.92;;
76125;SDS011;65174;48.138;21.002;2023-11-18T05:00:51;2.88;;;1.65;;
76125;SDS011;65174;48.138;21.002;2023-11-18T05:03:53;2.67;;;1.60;;
76125;SDS011;65174;48.138;21.002;2023-11-18T05:06:55;2.40;;;1.70;;
76125;SDS011;65174;48.138;21.002;2023-11-18T05:09:57;3.08;;;1.67;;
76125;SDS011;65174;48.138;21.002;2023-11-18T05:12:59;1.08;;;0.88;;
76125;SDS011;65174;48.138;21.002;2023-11-18T05:16:01;3.13;;;2.00;;
76125;SDS011;65174;48.138;21.002;2023-11-18T05:19:04;1.87;;;0.93;;
76125;SDS011;65174;48.138;21.002;2023-11-18T05:22:06;2.33;;;1.70;;
76125;SDS011;65174;48.138;21.002;2023-11-18T05:25:08;2.55;;;1.42;;
76125;SDS011;65174;48.138;21.002;2023-11-18T05:28:11;2.75;;;1.42;;
76125;SDS011;65174;48.138;21.002;2023-11-18T05:31:13;2.70;;;1.33;;
76125;SDS011;65174;48.138;21.002;2023-11-18T05:34:15;1.50;;;1.00;;
76125;SDS011;65174;48.138;21.002;2023-11-18T05:37:17;1.90;;;1.38;;
76125;SDS011;65174;48.138;21.002;2023-11-18T05:40:19;2.42;;;1.48;;
76125;SDS011;65174;48.138;21.002;2023-11-18T05:43:25;2.30;;;1.15;;
76125;SDS011;65174;48.138;21.002;2023-11-18T05:46:31;6.90;;;2.47;;
76125;SDS011;65174;48.138;21.002;2023-11-18T05:49:34;2.70;;;1.70;;
76125;SDS011;65174;48.138;21.002;2023-11-18T05:52:36;3.65;;;1.52;;
76125;SDS011;65174;48.138;21.002;2023-11-18T05:56:05;1.40;;;1.23;;
76125;SDS011;65174;48.138;21.002;2023-11-18T05:59:08;1.70;;;0.60;;
76125;SDS011;65174;48.138;21.002;2023-11-18T06:02:10;1.73;;;1.20;;
76125;SDS011;65174;48.138;21.002;2023-11-18T06:05:19;1.40;;;1.17;;
76125;SDS011;65174;48.138;21.002;2023-11-18T06:08:21;2.35;;;1.27;;
76125;SDS011;65174;48.138;21.002;2023-11-18T06:11:24;4.75;;;2.33;;
76125;SDS011;65174;48.138;21.002;2023-11-18T06:14:26;6.35;;;2.47;;
76125;SDS011;65174;48.138;21.002;2023-11-18T06:17:28;7.22;;;3.17;;
76125;SDS011;65174;48.138;21.002;2023-11-18T06:20:30;12.73;;;5.17;;
76125;SDS011;65174;48.138;21.002;2023-11-18T06:23:32;8.10;;;3.42;;
76125;SDS011;65174;48.138;21.002;2023-11-18T06:26:34;11.20;;;4.72;;
76125;SDS011;65174;48.138;21.002;2023-11-18T06:29:39;11.13;;;4.22;;
76125;SDS011;65174;48.138;21.002;2023-11-18T06:32:42;9.75;;;5.00;;
76125;SDS011;65174;48.138;21.002;2023-11-18T06:35:43;16.57;;;6.10;;
76125;SDS011;65174;48.138;21.002;2023-11-18T06:38:46;4.57;;;2.83;;
76125;SDS011;65174;48.138;21.002;2023-11-18T06:41:50;4.78;;;2.80;;
76125;SDS011;65174;48.138;21.002;2023-11-18T06:44:53;4.10;;;1.83;;
76125;SDS011;65174;48.138;21.002;2023-11-18T06:47:55;3.65;;;1.80;;
76125;SDS011;65174;48.138;21.002;2023-11-18T06:50:57;3.77;;;2.07;;
76125;SDS011;65174;48.138;21.002;2023-11-18T06:53:59;4.05;;;1.88;;
76125;SDS011;65174;48.138;21.002;2023-11-18T06:57:00;3.15;;;2.03;;
76125;SDS011;65174;48.138;21.002;2023-11-18T07:00:03;2.90;;;1.80;;
76125;SDS011;65174;48.138;21.002;2023-11-18T07:03:10;2.72;;;1.73;;
76125;SDS011;65174;48.138;21.002;2023-11-18T07:06:17;3.53;;;1.70;;
76125;SDS011;65174;48.138;21.002;2023-11-18T07:09:23;2.88;;;1.80;;
76125;SDS011;65174;48.138;21.002;2023-11-18T07:12:27;2.85;;;1.60;;
76125;SDS011;65174;48.138;21.002;2023-11-18T07:15:29;2.83;;;1.50;;
76125;SDS011;65174;48.138;21.002;2023-11-18T07:18:31;2.90;;;1.73;;
76125;SDS011;65174;48.138;21.002;2023-11-18T07:21:36;2.77;;;1.67;;
76125;SDS011;65174;48.138;21.002;2023-11-18T07:24:37;4.15;;;1.83;;
76125;SDS011;65174;48.138;21.002;2023-11-18T07:27:39;3.17;;;1.98;;
76125;SDS011;65174;48.138;21.002;2023-11-18T07:30:41;5.88;;;1.88;;
76125;SDS011;65174;48.138;21.002;2023-11-18T07:33:44;6.18;;;3.25;;
76125;SDS011;65174;48.138;21.002;2023-11-18T07:36:50;2.57;;;1.70;;
76125;SDS011;65174;48.138;21.002;2023-11-18T07:39:53;2.78;;;1.77;;
76125;SDS011;65174;48.138;21.002;2023-11-18T07:42:56;5.07;;;2.65;;
76125;SDS011;65174;48.138;21.002;2023-11-18T07:45:58;7.43;;;3.28;;
76125;SDS011;65174;48.138;21.002;2023-11-18T07:49:00;5.28;;;2.50;;
76125;SDS011;65174;48.138;21.002;2023-11-18T07:52:03;4.17;;;2.33;;
76125;SDS011;65174;48.138;21.002;2023-11-18T07:55:05;2.92;;;2.17;;
76125;SDS011;65174;48.138;21.002;2023-11-18T07:58:10;2.53;;;1.85;;
76125;SDS011;65174;48.138;21.002;2023-11-18T08:01:12;1.90;;;1.48;;
76125;SDS011;65174;48.138;21.002;2023-11-18T08:04:14;3.15;;;1.55;;
76125;SDS011;65174;48.138;21.002;2023-11-18T08:07:16;1.73;;;1.20;;
76125;SDS011;65174;48.138;21.002;2023-11-18T08:10:18;2.30;;;1.52;;
76125;SDS011;65174;48.138;21.002;2023-11-18T08:13:21;2.85;;;1.58;;
76125;SDS011;65174;48.138;21.002;2023-11-18T08:16:23;6.68;;;1.75;;
76125;SDS011;65174;48.138;21.002;2023-11-18T08:19:26;2.45;;;1.65;;
76125;SDS011;65174;48.138;21.002;2023-11-18T08:22:28;2.97;;;1.80;;
76125;SDS011;65174;48.138;21.002;2023-11-18T08:25:29;3.67;;;1.67;;
76125;SDS011;65174;48.138;21.002;2023-11-18T08:28:31;2.22;;;1.30;;
76125;SDS011;65174;48.138;21.002;2023-11-18T08:31:33;2.33;;;1.65;;
76125;SDS011;65174;48.138;21.002;2023-11-18T08:34:35;2.33;;;1.80;;
76125;SDS011;65174;48.138;21.002;2023-11-18T08:37:39;2.70;;;1.90;;
76125;SDS011;65174;48.138;21.002;2023-11-18T08:40:41;3.00;;;1.83;;
76125;SDS011;65174;48.138;21.002;2023-11-18T08:43:44;3.38;;;1.85;;
76125;SDS011;65174;48.138;21.002;2023-11-18T08:46:48;3.13;;;1.50;;
76125;SDS011;65174;48.138;21.002;2023-11-18T08:49:50;3.00;;;1.90;;
76125;SDS011;65174;48.138;21.002;2023-11-18T08:52:52;3.67;;;1.83;;
76125;SDS011;65174;48.138;21.002;2023-11-18T08:56:00;2.65;;;1.67;;
76125;SDS011;65174;48.138;21.002;2023-11-18T08:59:04;3.08;;;1.70;;
76125;SDS011;65174;48.138;21.002;2023-11-18T09:02:10;2.38;;;1.60;;
76125;SDS011;65174;48.138;21.002;2023-11-18T09:05:16;2.85;;;2.00;;
76125;SDS011;65174;48.138;21.002;2023-11-18T09:08:21;3.13;;;2.20;;
76125;SDS011;65174;48.138;21.002;2023-11-18T09:11:23;4.63;;;2.00;;
76125;SDS011;65174;48.138;21.002;2023-11-18T09:14:28;3.20;;;1.75;;
76125;SDS011;65174;48.138;21.002;2023-11-18T09:17:30;5.47;;;2.15;;
76125;SDS011;65174;48.138;21.002;2023-11-18T09:20:32;2.97;;;1.98;;
76125;SDS011;65174;48.138;21.002;2023-11-18T09:23:34;3.93;;;2.53;;
76125;SDS011;65174;48.138;21.002;2023-11-18T09:26:36;8.45;;;2.60;;
76125;SDS011;65174;48.138;21.002;2023-11-18T09:29:38;7.95;;;3.20;;
76125;SDS011;65174;48.138;21.002;2023-11-18T09:32:40;6.35;;;2.95;;
76125;SDS011;65174;48.138;21.002;2023-11-18T09:35:43;5.40;;;3.10;;
76125;SDS011;65174;48.138;21.002;2023-11-18T09:38:45;11.43;;;4.13;;
76125;SDS011;65174;48.138;21.002;2023-11-18T09:41:51;8.02;;;3.78;;
76125;SDS011;65174;48.138;21.002;2023-11-18T09:44:53;6.13;;;3.47;;
76125;SDS011;65174;48.138;21.002;2023-11-18T09:47:56;6.47;;;3.20;;
76125;SDS011;65174;48.138;21.002;2023-11-18T09:51:01;5.13;;;2.83;;
76125;SDS011;65174;48.138;21.002;2023-11-18T09:54:04;3.37;;;2.10;;
76125;SDS011;65174;48.138;21.002;2023-11-18T09:57:16;3.92;;;2.10;;
76125;SDS011;65174;48.138;21.002;2023-11-18T10:00:20;5.50;;;2.70;;
76125;SDS011;65174;48.138;21.002;2023-11-18T10:03:28;3.58;;;2.03;;
76125;SDS011;65174;48.138;21.002;2023-11-18T10:06:31;4.90;;;1.95;;
76125;SDS011;65174;48.138;21.002;2023-11-18T10:09:35;4.23;;;2.63;;
76125;SDS011;65174;48.138;21.002;2023-11-18T10:12:41;4.10;;;2.20;;
76125;SDS011;65174;48.138;21.002;2023-11-18T10:15:46;8.05;;;3.17;;
76125;SDS011;65174;48.138;21.002;2023-11-18T10:18:52;6.35;;;2.58;;
76125;SDS011;65174;48.138;21.002;2023-11-18T10:21:55;5.70;;;3.30;;
76125;SDS011;65174;48.138;21.002;2023-11-18T10:24:58;9.10;;;3.93;;
76125;SDS011;65174;48.138;21.002;2023-11-18T10:28:03;10.85;;;4.20;;
76125;SDS011;65174;48.138;21.002;2023-11-18T10:31:06;7.97;;;3.90;;
76125;SDS011;65174;48.138;21.002;2023-11-18T10:34:09;10.70;;;3.83;;
76125;SDS011;65174;48.138;21.002;2023-11-18T10:37:13;13.68;;;4.88;;
76125;SDS011;65174;48.138;21.002;2023-11-18T10:40:15;9.53;;;4.00;;
76125;SDS011;65174;48.138;21.002;2023-11-18T10:43:17;9.02;;;3.72;;
76125;SDS011;65174;48.138;21.002;2023-11-18T10:46:19;9.20;;;4.28;;
76125;SDS011;65174;48.138;21.002;2023-11-18T10:49:22;16.92;;;6.28;;
76125;SDS011;65174;48.138;21.002;2023-11-18T10:52:24;13.68;;;5.85;;
76125;SDS011;65174;48.138;21.002;2023-11-18T10:55:39;9.87;;;5.17;;
76125;SDS011;65174;48.138;21.002;2023-11-18T10:58:41;10.32;;;6.00;;
76125;SDS011;65174;48.138;21.002;2023-11-18T11:01:44;8.07;;;4.15;;
76125;SDS011;65174;48.138;21.002;2023-11-18T11:04:46;7.35;;;3.63;;
76125;SDS011;65174;48.138;21.002;2023-11-18T11:07:50;10.05;;;4.10;;
76125;SDS011;65174;48.138;21.002;2023-11-18T11:10:53;4.60;;;2.60;;
76125;SDS011;65174;48.138;21.002;2023-11-18T11:14:00;4.10;;;2.42;;
76125;SDS011;65174;48.138;21.002;2023-11-18T11:17:06;8.48;;;3.70;;
76125;SDS011;65174;48.138;21.002;2023-11-18T11:20:18;6.25;;;2.15;;
76125;SDS011;65174;48.138;21.002;2023-11-18T11:23:35;6.22;;;2.80;;
76125;SDS011;65174;48.138;21.002;2023-11-18T11:29:57;2.88;;;1.27;;
76125;SDS011;65174;48.138;21.002;2023-11-18T11:33:07;1.40;;;1.00;;
76125;SDS011;65174;48.138;21.002;2023-11-18T11:36:15;2.20;;;1.33;;
76125;SDS011;65174;48.138;21.002;2023-11-18T11:39:19;2.38;;;1.50;;
76125;SDS011;65174;48.138;21.002;2023-11-18T11:42:27;2.37;;;1.23;;
76125;SDS011;65174;48.138;21.002;2023-11-18T11:45:30;1.92;;;1.27;;
76125;SDS011;65174;48.138;21.002;2023-11-18T11:48:32;2.30;;;1.45;;
76125;SDS011;65174;48.138;21.002;2023-11-18T11:51:44;3.95;;;1.75;;
76125;SDS011;65174;48.138;21.002;2023-11-18T11:58:30;5.87;;;3.00;;
76125;SDS011;65174;48.138;21.002;2023-11-18T12:01:35;6.82;;;3.67;;
76125;SDS011;65174;48.138;21.002;2023-11-18T12:04:39;4.82;;;1.60;;
76125;SDS011;65174;48.138;21.002;2023-11-18T12:07:43;2.17;;;1.98;;
76125;SDS011;65174;48.138;21.002;2023-11-18T12:10:51;3.38;;;1.95;;
76125;SDS011;65174;48.138;21.002;2023-11-18T12:14:00;8.73;;;1.83;;
76125;SDS011;65174;48.138;21.002;2023-11-18T12:17:11;4.78;;;2.20;;
76125;SDS011;65174;48.138;21.002;2023-11-18T12:23:37;2.78;;;1.73;;
76125;SDS011;65174;48.138;21.002;2023-11-18T12:26:59;5.65;;;3.22;;
76125;SDS011;65174;48.138;21.002;2023-11-18T12:43:49;3.15;;;1.85;;
76125;SDS011;65174;48.138;21.002;2023-11-18T12:46:54;4.00;;;2.27;;
76125;SDS011;65174;48.138;21.002;2023-11-18T12:49:58;5.40;;;2.13;;
76125;SDS011;65174;48.138;21.002;2023-11-18T12:53:02;3.85;;;2.00;;
76125;SDS011;65174;48.138;21.002;2023-11-18T12:56:04;3.67;;;1.90;;
76125;SDS011;65174;48.138;21.002;2023-11-18T12:59:07;5.63;;;1.80;;
76125;SDS011;65174;48.138;21.002;2023-11-18T13:02:11;4.00;;;1.70;;
76125;SDS011;65174;48.138;21.002;2023-11-18T13:05:21;2.17;;;1.52;;
76125;SDS011;65174;48.138;21.002;2023-11-18T13:08:23;6.63;;;2.00;;
76125;SDS011;65174;48.138;21.002;2023-11-18T13:11:26;3.20;;;1.65;;
76125;SDS011;65174;48.138;21.002;2023-11-18T13:14:28;3.08;;;2.13;;
76125;SDS011;65174;48.138;21.002;2023-11-18T13:17:32;5.43;;;2.00;;
76125;SDS011;65174;48.138;21.002;2023-11-18T13:20:33;1.45;;;1.17;;
76125;SDS011;65174;48.138;21.002;2023-11-18T13:23:37;3.67;;;2.20;;
76125;SDS011;65174;48.138;21.002;2023-11-18T13:26:39;5.32;;;2.10;;
76125;SDS011;65174;48.138;21.002;2023-11-18T13:29:43;6.35;;;2.70;;
76125;SDS011;65174;48.138;21.002;2023-11-18T13:32:47;4.33;;;3.07;;
76125;SDS011;65174;48.138;21.002;2023-11-18T13:35:51;3.80;;;2.30;;
76125;SDS011;65174;48.138;21.002;2023-11-18T13:38:53;13.95;;;4.40;;
76125;SDS011;65174;48.138;21.002;2023-11-18T13:41:55;6.70;;;3.03;;
76125;SDS011;65174;48.138;21.002;2023-11-18T13:45:00;3.97;;;2.67;;
76125;SDS011;65174;48.138;21.002;2023-11-18T13:48:02;3.13;;;2.40;;
76125;SDS011;65174;48.138;21.002;2023-11-18T13:51:04;3.58;;;2.55;;
76125;SDS011;65174;48.138;21.002;2023-11-18T13:54:09;7.07;;;3.10;;
76125;SDS011;65174;48.138;21.002;2023-11-18T13:57:11;6.35;;;3.03;;
76125;SDS011;65174;48.138;21.002;2023-11-18T14:00:13;4.78;;;2.97;;
76125;SDS011;65174;48.138;21.002;2023-11-18T14:03:17;7.43;;;3.10;;
76125;SDS011;65174;48.138;21.002;2023-11-18T14:06:21;4.32;;;2.28;;
76125;SDS011;65174;48.138;21.002;2023-11-18T14:09:24;3.22;;;2.10;;
76125;SDS011;65174;48.138;21.002;2023-11-18T14:12:26;4.85;;;2.63;;
76125;SDS011;65174;48.138;21.002;2023-11-18T14:15:29;3.28;;;2.05;;
76125;SDS011;65174;48.138;21.002;2023-11-18T14:18:32;3.33;;;2.30;;
76125;SDS011;65174;48.138;21.002;2023-11-18T14:21:33;4.60;;;2.05;;
76125;SDS011;65174;48.138;21.002;2023-11-18T14:24:35;4.53;;;2.58;;
76125;SDS011;65174;48.138;21.002;2023-11-18T14:27:37;4.45;;;2.42;;
76125;SDS011;65174;48.138;21.002;2023-11-18T14:30:39;5.07;;;2.83;;
76125;SDS011;65174;48.138;21.002;2023-11-18T14:33:41;5.10;;;2.47;;
76125;SDS011;65174;48.138;21.002;2023-11-18T14:36:43;6.03;;;2.63;;
76125;SDS011;65174;48.138;21.002;2023-11-18T14:39:46;5.47;;;3.15;;
76125;SDS011;65174;48.138;21.002;2023-11-18T14:42:48;5.55;;;2.92;;
76125;SDS011;65174;48.138;21.002;2023-11-18T14:45:50;6.88;;;3.45;;
76125;SDS011;65174;48.138;21.002;2023-11-18T14:48:52;3.47;;;2.20;;
76125;SDS011;65174;48.138;21.002;2023-11-18T14:51:53;3.53;;;2.33;;
76125;SDS011;65174;48.138;21.002;2023-11-18T14:54:55;4.35;;;2.42;;
76125;SDS011;65174;48.138;21.002;2023-11-18T14:57:57;4.07;;;2.58;;
76125;SDS011;65174;48.138;21.002;2023-11-18T15:00:59;4.03;;;2.60;;
76125;SDS011;65174;48.138;21.002;2023-11-18T15:04:02;5.57;;;2.40;;
76125;SDS011;65174;48.138;21.002;2023-11-18T15:07:07;6.47;;;3.33;;
76125;SDS011;65174;48.138;21.002;2023-11-18T15:10:09;3.08;;;2.10;;
76125;SDS011;65174;48.138;21.002;2023-11-18T15:13:11;1.67;;;1.27;;
76125;SDS011;65174;48.138;21.002;2023-11-18T15:16:19;3.10;;;1.85;;
76125;SDS011;65174;48.138;21.002;2023-11-18T15:19:21;3.03;;;2.03;;
76125;SDS011;65174;48.138;21.002;2023-11-18T15:22:23;3.28;;;2.42;;
76125;SDS011;65174;48.138;21.002;2023-11-18T15:25:25;3.60;;;1.77;;
76125;SDS011;65174;48.138;21.002;2023-11-18T15:28:28;3.95;;;1.60;;
76125;SDS011;65174;48.138;21.002;2023-11-18T15:31:30;2.75;;;1.90;;
76125;SDS011;65174;48.138;21.002;2023-11-18T15:34:32;2.17;;;1.57;;
76125;SDS011;65174;48.138;21.002;2023-11-18T15:37:37;2.72;;;1.98;;
76125;SDS011;65174;48.138;21.002;2023-11-18T15:40:39;2.30;;;1.38;;
76125;SDS011;65174;48.138;21.002;2023-11-18T15:43:41;1.60;;;1.50;;
76125;SDS011;65174;48.138;21.002;2023-11-18T15:46:47;2.83;;;1.80;;
76125;SDS011;65174;48.138;21.002;2023-11-18T15:49:49;1.47;;;1.30;;
76125;SDS011;65174;48.138;21.002;2023-11-18T15:52:51;3.75;;;2.38;;
76125;SDS011;65174;48.138;21.002;2023-11-18T15:55:54;4.85;;;2.63;;
76125;SDS011;65174;48.138;21.002;2023-11-18T15:58:55;2.88;;;1.95;;
76125;SDS011;65174;48.138;21.002;2023-11-18T16:01:57;4.90;;;2.88;;
76125;SDS011;65174;48.138;21.002;2023-11-18T16:04:59;9.23;;;5.80;;
76125;SDS011;65174;48.138;21.002;2023-11-18T16:08:01;5.13;;;2.50;;
76125;SDS011;65174;48.138;21.002;2023-11-18T16:11:04;6.03;;;2.95;;
76125;SDS011;65174;48.138;21.002;2023-11-18T16:14:06;2.88;;;2.15;;
76125;SDS011;65174;48.138;21.002;2023-11-18T16:17:08;5.35;;;3.47;;
76125;SDS011;65174;48.138;21.002;2023-11-18T16:20:10;4.10;;;2.27;;
76125;SDS011;65174;48.138;21.002;2023-11-18T16:23:19;6.70;;;2.92;;
76125;SDS011;65174;48.138;21.002;2023-11-18T16:26:23;5.63;;;3.05;;
76125;SDS011;65174;48.138;21.002;2023-11-18T16:29:25;6.22;;;3.47;;
76125;SDS011;65174;48.138;21.002;2023-11-18T16:32:27;6.30;;;3.08;;
76125;SDS011;65174;48.138;21.002;2023-11-18T16:35:29;5.50;;;3.17;;
76125;SDS011;65174;48.138;21.002;2023-11-18T16:38:32;6.43;;;4.13;;
76125;SDS011;65174;48.138;21.002;2023-11-18T16:41:34;6.20;;;3.60;;
76125;SDS011;65174;48.138;21.002;2023-11-18T16:44:46;5.47;;;3.17;;
76125;SDS011;65174;48.138;21.002;2023-11-18T16:47:49;6.03;;;3.63;;
76125;SDS011;65174;48.138;21.002;2023-11-18T16:50:52;10.20;;;4.97;;
76125;SDS011;65174;48.138;21.002;2023-11-18T16:53:55;6.53;;;4.13;;
76125;SDS011;65174;48.138;21.002;2023-11-18T16:56:57;4.68;;;2.55;;
76125;SDS011;65174;48.138;21.002;2023-11-18T16:59:59;4.20;;;3.65;;
76125;SDS011;65174;48.138;21.002;2023-11-18T17:03:01;3.80;;;3.03;;
76125;SDS011;65174;48.138;21.002;2023-11-18T17:06:04;5.20;;;3.10;;
76125;SDS011;65174;48.138;21.002;2023-11-18T17:09:06;5.45;;;3.22;;
76125;SDS011;65174;48.138;21.002;2023-11-18T17:12:08;5.30;;;3.30;;
76125;SDS011;65174;48.138;21.002;2023-11-18T17:15:11;5.45;;;3.42;;
76125;SDS011;65174;48.138;21.002;2023-11-18T17:18:17;5.80;;;3.63;;
76125;SDS011;65174;48.138;21.002;2023-11-18T17:21:19;4.13;;;2.83;;
76125;SDS011;65174;48.138;21.002;2023-11-18T17:24:21;12.57;;;4.85;;
76125;SDS011;65174;48.138;21.002;2023-11-18T17:27:23;5.10;;;3.42;;
76125;SDS011;65174;48.138;21.002;2023-11-18T17:30:26;7.60;;;5.18;;
76125;SDS011;65174;48.138;21.002;2023-11-18T17:33:33;5.18;;;3.80;;
76125;SDS011;65174;48.138;21.002;2023-11-18T17:36:36;9.00;;;4.27;;
76125;SDS011;65174;48.138;21.002;2023-11-18T17:39:38;5.45;;;3.83;;
76125;SDS011;65174;48.138;21.002;2023-11-18T17:42:41;8.43;;;4.43;;
76125;SDS011;65174;48.138;21.002;2023-11-18T17:45:43;5.47;;;3.17;;
76125;SDS011;65174;48.138;21.002;2023-11-18T17:48:45;5.70;;;3.28;;
76125;SDS011;65174;48.138;21.002;2023-11-18T17:51:47;6.57;;;3.77;;
76125;SDS011;65174;48.138;21.002;2023-11-18T17:54:49;3.33;;;2.85;;
76125;SDS011;65174;48.138;21.002;2023-11-18T17:57:51;6.13;;;4.07;;
76125;SDS011;65174;48.138;21.002;2023-11-18T18:00:54;4.20;;;3.17;;
76125;SDS011;65174;48.138;21.002;2023-11-18T18:03:56;6.05;;;3.78;;
76125;SDS011;65174;48.138;21.002;2023-11-18T18:06:58;6.73;;;3.67;;
76125;SDS011;65174;48.138;21.002;2023-11-18T18:09:59;7.10;;;2.83;;
76125;SDS011;65174;48.138;21.002;2023-11-18T18:13:02;7.22;;;3.53;;
76125;SDS011;65174;48.138;21.002;2023-11-18T18:16:04;5.82;;;3.20;;
76125;SDS011;65174;48.138;21.002;2023-11-18T18:19:06;4.60;;;3.38;;
76125;SDS011;65174;48.138;21.002;2023-11-18T18:22:08;5.20;;;3.40;;
76125;SDS011;65174;48.138;21.002;2023-11-18T18:25:11;6.72;;;4.05;;
76125;SDS011;65174;48.138;21.002;2023-11-18T18:28:14;4.90;;;3.35;;
76125;SDS011;65174;48.138;21.002;2023-11-18T18:31:16;8.32;;;2.60;;